UDMOR weather

Aviosuperficie Chiasiellis
Mortegliano (UD), Friuli-Venezia Giulia, Italy

Public forecast

Using degrees Celsius for public forecast. Weather courtesy of forecast.io.

Closest aviation weather report (METAR) to Aviosuperficie Chiasiellis

Report is more than 6 hours old.

Closest report is Rivolto Air Base, 6.9 nm (12.9 km) WNW. Retrieved 2020/04/03 14:55 UTC (18 hours ago):

LIPI 031455Z 23006KT CAVOK 17/M01 Q1013 RMK FEW FEW180 VIS MIN 9999 WIND THR06 26006KT WIND THR24 25004KT BLU

Closest aviation forecast (TAF) to Aviosuperficie Chiasiellis

Forecast is more than 12 hours old.

Closest forecast is Rivolto Air Base, 6.9 nm (12.9 km) WNW. Retrieved 2020/01/23 12:24 UTC (2 months ago):

TAF TAF LIPI 231100Z 2312/2324 06010KT CAVOK